createdAt,value
2022-11-09T00:01:04.029Z,11.46
2022-11-09T00:03:30.868Z,11.38
2022-11-09T00:05:59.086Z,11.36
2022-11-09T00:08:27.307Z,11.51
2022-11-09T00:10:54.053Z,11.43
2022-11-09T00:13:21.569Z,11.46
2022-11-09T00:15:49.080Z,11.41
2022-11-09T00:18:15.895Z,11.41
2022-11-09T00:20:47.754Z,11.48
2022-11-09T00:23:16.685Z,11.58
2022-11-09T00:25:44.467Z,11.53
2022-11-09T00:28:11.672Z,11.54
2022-11-09T00:30:38.801Z,11.54
2022-11-09T00:33:05.543Z,11.62
2022-11-09T00:35:32.921Z,11.60
2022-11-09T00:37:59.714Z,11.61
2022-11-09T00:40:26.660Z,11.62
2022-11-09T00:42:53.516Z,11.65
2022-11-09T00:45:20.622Z,11.74
2022-11-09T00:47:47.350Z,11.66
2022-11-09T00:50:14.938Z,11.65
2022-11-09T00:52:42.016Z,11.68
2022-11-09T00:55:09.278Z,11.65
2022-11-09T00:57:36.741Z,11.62
2022-11-09T01:00:04.346Z,11.66
2022-11-09T01:02:31.339Z,11.88
2022-11-09T01:04:58.502Z,11.93
2022-11-09T01:07:25.430Z,11.96
2022-11-09T01:09:52.445Z,12.05
2022-11-09T01:12:19.874Z,12.09
2022-11-09T01:14:46.672Z,12.14
2022-11-09T01:17:13.339Z,12.29
2022-11-09T01:19:40.356Z,12.29
2022-11-09T01:22:07.162Z,12.32
2022-11-09T01:24:34.226Z,12.24
2022-11-09T01:27:01.241Z,12.23
2022-11-09T01:29:29.110Z,11.97
2022-11-09T01:31:56.165Z,11.81
2022-11-09T01:34:23.518Z,11.85
2022-11-09T01:36:54.618Z,11.82
2022-11-09T01:39:21.870Z,11.65
2022-11-09T01:41:49.284Z,11.59
2022-11-09T01:44:20.689Z,11.67
2022-11-09T01:46:56.135Z,11.48
2022-11-09T01:49:56.904Z,11.44
2022-11-09T01:52:30.762Z,11.47
2022-11-09T01:55:26.722Z,11.44
2022-11-09T01:58:01.375Z,11.49
2022-11-09T02:00:29.113Z,11.46
2022-11-09T02:02:59.550Z,11.44
2022-11-09T02:05:28.960Z,11.45
2022-11-09T02:07:56.639Z,11.52
2022-11-09T02:10:34.419Z,11.57
2022-11-09T02:13:02.781Z,11.65
2022-11-09T02:15:30.383Z,11.66
2022-11-09T02:17:57.296Z,11.63
2022-11-09T02:20:24.864Z,11.69
2022-11-09T02:22:51.799Z,11.68
2022-11-09T02:25:18.961Z,11.68
2022-11-09T02:27:46.546Z,11.71
2022-11-09T02:30:14.073Z,11.63
2022-11-09T02:32:41.486Z,11.63
2022-11-09T02:35:09.005Z,11.71
2022-11-09T02:37:40.359Z,11.67
2022-11-09T02:40:12.255Z,11.65
2022-11-09T02:42:39.146Z,11.74
2022-11-09T02:45:06.404Z,11.75
2022-11-09T02:47:33.260Z,11.76
2022-11-09T02:50:00.050Z,11.69
2022-11-09T02:52:26.957Z,11.73
2022-11-09T02:54:53.968Z,11.68
2022-11-09T02:57:20.802Z,11.73
2022-11-09T02:59:47.821Z,11.75
2022-11-09T03:02:14.520Z,11.68
2022-11-09T03:04:41.512Z,11.60
2022-11-09T03:07:08.507Z,11.61
2022-11-09T03:09:35.379Z,11.54
2022-11-09T03:12:25.527Z,11.48
2022-11-09T03:14:52.206Z,11.49
2022-11-09T03:17:18.959Z,11.58
2022-11-09T03:19:45.642Z,11.57
2022-11-09T03:22:12.717Z,11.56
2022-11-09T03:24:39.547Z,11.66
2022-11-09T03:27:06.372Z,11.67
2022-11-09T03:29:33.924Z,11.74
2022-11-09T03:32:00.942Z,11.64
2022-11-09T03:34:27.963Z,11.73
2022-11-09T03:36:54.773Z,11.79
2022-11-09T03:39:21.762Z,11.92
2022-11-09T03:41:48.761Z,11.81
2022-11-09T03:44:15.660Z,11.90
2022-11-09T03:46:42.529Z,12.04
2022-11-09T03:49:09.241Z,12.06
2022-11-09T03:51:36.077Z,12.04
2022-11-09T03:54:03.102Z,12.10
2022-11-09T03:56:29.750Z,12.10
2022-11-09T03:58:56.577Z,12.08
2022-11-09T04:01:24.127Z,12.08
2022-11-09T04:03:50.987Z,12.05
2022-11-09T04:06:17.705Z,12.04
2022-11-09T04:08:50.938Z,12.07
2022-11-09T04:11:17.953Z,12.05
2022-11-09T04:13:44.922Z,12.08
2022-11-09T04:16:11.818Z,12.07
2022-11-09T04:18:39.285Z,12.08
2022-11-09T04:21:06.159Z,12.06
2022-11-09T04:23:33.498Z,12.07
2022-11-09T04:26:00.235Z,11.98
2022-11-09T04:28:27.030Z,11.97
2022-11-09T04:30:53.694Z,11.99
2022-11-09T04:33:20.922Z,11.96
2022-11-09T04:35:47.925Z,11.94
2022-11-09T04:38:15.610Z,11.93
2022-11-09T04:40:42.582Z,11.89
2022-11-09T04:43:12.987Z,11.84
2022-11-09T04:45:40.714Z,11.82
2022-11-09T04:48:08.645Z,11.85
2022-11-09T04:50:35.425Z,11.84
2022-11-09T04:53:12.278Z,11.84
2022-11-09T04:55:40.574Z,11.77
2022-11-09T04:58:07.778Z,11.75
2022-11-09T05:00:35.181Z,11.86
2022-11-09T05:03:06.673Z,11.86
2022-11-09T05:05:34.728Z,11.87
2022-11-09T05:08:02.054Z,11.86
2022-11-09T05:10:29.207Z,11.84
2022-11-09T05:13:04.397Z,11.79
2022-11-09T05:15:31.446Z,11.86
2022-11-09T05:17:58.711Z,11.93
2022-11-09T05:20:26.872Z,11.90
2022-11-09T05:23:12.673Z,11.92
2022-11-09T05:25:39.482Z,11.97
2022-11-09T05:28:06.186Z,11.95
2022-11-09T05:30:32.884Z,11.96
2022-11-09T05:32:59.985Z,11.98
2022-11-09T05:35:26.672Z,12.01
2022-11-09T05:37:53.610Z,11.95
2022-11-09T05:40:20.844Z,11.95
2022-11-09T05:42:48.166Z,11.97
2022-11-09T05:48:05.334Z,11.92
2022-11-09T05:50:32.256Z,11.88
2022-11-09T05:53:00.882Z,11.78
2022-11-09T05:55:28.218Z,11.70
2022-11-09T05:57:55.260Z,11.78
2022-11-09T06:00:23.154Z,11.80
2022-11-09T06:02:49.953Z,11.86
2022-11-09T06:05:17.122Z,11.84
2022-11-09T06:07:45.641Z,11.80
2022-11-09T06:10:12.374Z,11.79
2022-11-09T06:12:39.367Z,11.67
2022-11-09T06:15:06.756Z,11.78
2022-11-09T06:17:33.422Z,11.76
2022-11-09T06:20:00.426Z,11.75
2022-11-09T06:22:28.210Z,11.76
2022-11-09T06:24:55.054Z,11.80
2022-11-09T06:27:21.831Z,11.63
2022-11-09T06:29:48.534Z,11.77
2022-11-09T06:32:15.426Z,11.81
2022-11-09T06:34:44.891Z,11.81
2022-11-09T06:37:11.916Z,11.82
2022-11-09T06:39:38.872Z,11.93
2022-11-09T06:42:05.636Z,11.89
2022-11-09T06:44:33.263Z,11.91
2022-11-09T06:46:59.953Z,11.88
2022-11-09T06:49:26.665Z,11.85
2022-11-09T06:51:53.546Z,11.80
2022-11-09T06:54:20.317Z,11.80
2022-11-09T06:56:47.036Z,11.75
2022-11-09T06:59:14.084Z,11.76
2022-11-09T07:01:41.090Z,11.80
2022-11-09T07:04:07.995Z,11.66
2022-11-09T07:06:34.723Z,11.70
2022-11-09T07:09:01.961Z,11.70
2022-11-09T07:11:28.838Z,11.67
2022-11-09T07:13:57.561Z,11.69
2022-11-09T07:16:24.885Z,11.68
2022-11-09T07:18:51.678Z,11.67
2022-11-09T07:21:18.964Z,11.66
2022-11-09T07:23:47.851Z,11.64
2022-11-09T07:26:15.546Z,11.58
2022-11-09T07:28:42.640Z,11.60
2022-11-09T07:31:10.043Z,11.59
2022-11-09T07:33:36.805Z,11.52
2022-11-09T07:36:05.601Z,11.48
2022-11-09T07:38:32.510Z,11.43
2022-11-09T07:41:02.611Z,11.38
2022-11-09T07:43:31.722Z,11.39
2022-11-09T07:45:59.394Z,11.35
2022-11-09T07:48:26.274Z,11.45
2022-11-09T07:50:53.196Z,11.50
2022-11-09T07:53:21.739Z,11.52
2022-11-09T07:55:57.463Z,11.56
2022-11-09T07:58:25.120Z,11.65
2022-11-09T08:00:51.849Z,11.79
2022-11-09T08:03:20.045Z,11.94
2022-11-09T08:05:46.955Z,12.00
2022-11-09T08:08:15.784Z,12.13
2022-11-09T08:10:44.022Z,12.15
2022-11-09T08:13:13.586Z,12.19
2022-11-09T08:15:41.867Z,12.25
2022-11-09T08:18:13.044Z,12.29
2022-11-09T08:20:39.941Z,12.29
2022-11-09T08:23:07.046Z,12.34
2022-11-09T08:25:35.733Z,12.32
2022-11-09T08:28:03.846Z,12.36
2022-11-09T08:30:31.338Z,12.54
2022-11-09T08:32:59.115Z,12.71
2022-11-09T08:35:27.012Z,12.79
2022-11-09T08:37:55.222Z,12.93
2022-11-09T08:40:26.216Z,13.05
2022-11-09T08:42:53.787Z,13.17
2022-11-09T08:45:21.637Z,13.22
2022-11-09T08:47:48.419Z,13.33
2022-11-09T08:50:16.018Z,13.43
2022-11-09T08:52:43.464Z,13.47
2022-11-09T08:55:10.489Z,13.60
2022-11-09T08:57:37.298Z,13.64
2022-11-09T09:00:05.467Z,13.70
2022-11-09T09:02:32.422Z,13.72
2022-11-09T09:05:00.007Z,13.68
2022-11-09T09:07:26.764Z,13.85
2022-11-09T09:09:53.938Z,13.82
2022-11-09T09:12:20.704Z,13.92
2022-11-09T09:14:48.346Z,13.93
2022-11-09T09:17:15.170Z,13.89
2022-11-09T09:19:45.967Z,14.04
2022-11-09T09:22:15.740Z,14.10
2022-11-09T09:24:42.774Z,14.21
2022-11-09T09:27:09.682Z,14.24
2022-11-09T09:29:36.475Z,14.32
2022-11-09T09:32:03.482Z,14.40
2022-11-09T09:34:30.562Z,14.46
2022-11-09T09:36:57.442Z,14.63
2022-11-09T09:39:24.833Z,14.77
2022-11-09T09:41:56.665Z,14.74
2022-11-09T09:44:30.124Z,14.91
2022-11-09T09:47:20.363Z,15.09
2022-11-09T09:49:56.755Z,15.23
2022-11-09T09:52:42.013Z,15.35
2022-11-09T09:55:39.525Z,15.30
2022-11-09T09:58:24.068Z,15.24
2022-11-09T10:00:55.255Z,15.33
2022-11-09T10:03:22.059Z,15.33
2022-11-09T10:06:05.520Z,15.37
2022-11-09T10:08:54.654Z,15.23
2022-11-09T10:12:13.848Z,15.38
2022-11-09T10:15:07.188Z,15.41
2022-11-09T10:18:15.047Z,15.42
2022-11-09T10:21:34.224Z,15.50
2022-11-09T10:25:18.506Z,15.60
2022-11-09T10:27:48.831Z,15.59
2022-11-09T10:30:18.402Z,15.70
2022-11-09T10:32:51.158Z,15.64
2022-11-09T10:35:24.850Z,15.66
2022-11-09T10:37:52.855Z,15.68
2022-11-09T10:40:52.168Z,15.78
2022-11-09T10:43:19.107Z,15.92
2022-11-09T10:45:46.387Z,15.91
2022-11-09T10:48:14.492Z,15.88
2022-11-09T10:50:54.659Z,15.87
2022-11-09T10:53:32.643Z,15.81
2022-11-09T10:56:33.001Z,15.85
2022-11-09T10:59:04.146Z,15.72
2022-11-09T11:01:37.952Z,15.69
2022-11-09T11:04:21.312Z,15.70
2022-11-09T11:06:48.009Z,15.61
2022-11-09T11:09:19.027Z,15.52
2022-11-09T11:11:45.758Z,15.47
2022-11-09T11:14:22.796Z,15.41
2022-11-09T11:16:52.704Z,15.41
2022-11-09T11:19:32.874Z,15.40
2022-11-09T11:22:32.441Z,15.35
2022-11-09T11:25:01.651Z,15.27
2022-11-09T11:28:00.926Z,15.27
2022-11-09T11:30:35.207Z,15.25
2022-11-09T11:33:03.035Z,15.18
2022-11-09T11:35:50.832Z,15.21
2022-11-09T11:38:52.148Z,15.22
2022-11-09T11:41:48.533Z,15.16
2022-11-09T11:44:49.160Z,15.20
2022-11-09T11:48:10.830Z,15.19
2022-11-09T11:51:14.091Z,15.26
2022-11-09T11:54:14.501Z,15.23
2022-11-09T11:57:31.305Z,15.19
2022-11-09T12:00:11.248Z,15.30
2022-11-09T12:03:32.513Z,15.18
2022-11-09T12:06:12.435Z,15.23
2022-11-09T12:09:03.157Z,15.28
2022-11-09T12:18:29.546Z,15.22
2022-11-09T12:21:16.882Z,15.12
2022-11-09T12:24:25.215Z,15.09
2022-11-09T12:27:30.533Z,15.14
2022-11-09T12:30:05.782Z,15.10
2022-11-09T12:32:59.334Z,15.13
2022-11-09T12:35:39.923Z,15.04
2022-11-09T12:38:23.195Z,15.12
2022-11-09T12:41:11.233Z,15.12
2022-11-09T12:43:58.733Z,15.10
2022-11-09T12:46:31.577Z,15.18
2022-11-09T12:49:02.443Z,15.12
2022-11-09T12:51:29.234Z,15.14
2022-11-09T12:53:56.870Z,15.10
2022-11-09T12:56:27.880Z,15.09
2022-11-09T12:59:48.311Z,15.07
2022-11-09T13:02:34.397Z,15.10
2022-11-09T13:05:04.218Z,15.10
2022-11-09T13:07:52.158Z,15.11
2022-11-09T13:10:39.701Z,15.17
2022-11-09T13:13:32.923Z,15.22
2022-11-09T13:16:33.580Z,15.29
2022-11-09T13:19:03.256Z,15.28
2022-11-09T13:21:34.795Z,15.31
2022-11-09T13:24:50.544Z,15.36
2022-11-09T13:27:42.129Z,15.38
2022-11-09T13:30:45.097Z,15.43
2022-11-09T13:33:24.103Z,15.46
2022-11-09T13:36:16.021Z,15.42
2022-11-09T13:38:43.472Z,15.47
2022-11-09T13:41:51.262Z,15.45
2022-11-09T13:44:27.261Z,15.54
2022-11-09T13:46:54.612Z,15.54
2022-11-09T13:49:38.495Z,15.64
2022-11-09T13:52:05.254Z,15.70
2022-11-09T13:54:34.282Z,15.66
2022-11-09T13:57:06.697Z,15.77
2022-11-09T13:59:47.129Z,15.71
2022-11-09T14:02:26.064Z,15.76
2022-11-09T14:04:54.380Z,15.74
2022-11-09T14:07:26.514Z,15.66
2022-11-09T14:10:22.311Z,15.59
2022-11-09T14:13:35.596Z,15.66
2022-11-09T14:16:40.040Z,15.54
2022-11-09T14:22:35.323Z,15.50
2022-11-09T14:25:19.722Z,15.51
2022-11-09T14:27:57.144Z,15.43
2022-11-09T14:30:29.269Z,15.52
2022-11-09T14:32:57.869Z,15.48
2022-11-09T14:35:35.623Z,15.44
2022-11-09T14:38:15.616Z,15.41
2022-11-09T14:40:46.683Z,15.34
2022-11-09T14:43:29.428Z,15.32
2022-11-09T14:46:01.482Z,15.30
2022-11-09T14:48:29.647Z,15.39
2022-11-09T14:51:00.035Z,15.34
2022-11-09T14:53:32.764Z,15.31
2022-11-09T14:56:05.211Z,15.22
2022-11-09T14:58:34.380Z,15.09
2022-11-09T15:01:24.281Z,15.12
2022-11-09T15:04:14.429Z,15.17
2022-11-09T15:06:46.788Z,15.20
2022-11-09T15:09:28.337Z,15.08
2022-11-09T15:11:55.363Z,15.09
2022-11-09T15:14:31.615Z,15.10
2022-11-09T15:17:23.100Z,15.10
2022-11-09T15:19:58.939Z,14.97
2022-11-09T15:22:50.706Z,14.90
2022-11-09T15:25:20.659Z,14.90
2022-11-09T15:28:24.640Z,14.87
2022-11-09T15:31:16.085Z,14.84
2022-11-09T15:33:53.730Z,14.81
2022-11-09T15:36:34.147Z,14.83
2022-11-09T15:39:09.490Z,14.80
2022-11-09T15:41:37.269Z,14.80
2022-11-09T15:44:05.956Z,14.81
2022-11-09T15:46:37.043Z,14.71
2022-11-09T15:49:17.019Z,14.76
2022-11-09T15:51:44.989Z,14.72
2022-11-09T15:54:12.159Z,14.60
2022-11-09T15:56:38.930Z,14.60
2022-11-09T15:59:06.098Z,14.56
2022-11-09T16:01:33.145Z,14.58
2022-11-09T16:04:00.442Z,14.53
2022-11-09T16:06:27.731Z,14.52
2022-11-09T16:08:54.829Z,14.47
2022-11-09T16:11:21.600Z,14.63
2022-11-09T16:13:48.390Z,14.52
2022-11-09T16:16:15.943Z,14.54
2022-11-09T16:18:43.562Z,14.51
2022-11-09T16:21:16.212Z,14.47
2022-11-09T16:23:44.630Z,14.43
2022-11-09T16:26:14.082Z,14.40
2022-11-09T16:28:41.294Z,14.24
2022-11-09T16:31:08.456Z,14.28
2022-11-09T16:33:35.807Z,14.24
2022-11-09T16:36:06.536Z,14.31
2022-11-09T16:38:39.146Z,14.25
2022-11-09T16:41:06.270Z,14.18
2022-11-09T16:43:33.277Z,14.22
2022-11-09T16:46:00.256Z,14.21
2022-11-09T16:48:27.022Z,14.16
2022-11-09T16:50:53.915Z,14.14
2022-11-09T16:53:26.526Z,14.05
2022-11-09T16:55:53.989Z,14.09
2022-11-09T16:58:21.568Z,14.12
2022-11-09T17:01:11.667Z,14.15
2022-11-09T17:03:37.325Z,14.08
2022-11-09T17:06:04.614Z,14.04
2022-11-09T17:08:32.081Z,13.91
2022-11-09T17:10:58.848Z,14.07
2022-11-09T17:13:25.550Z,13.97
2022-11-09T17:15:53.556Z,13.92
2022-11-09T17:18:20.650Z,13.90
2022-11-09T17:20:49.892Z,13.84
2022-11-09T17:23:18.964Z,13.71
2022-11-09T17:25:57.136Z,13.68
2022-11-09T17:28:24.641Z,13.62
2022-11-09T17:30:51.678Z,13.78
2022-11-09T17:33:18.337Z,13.72
2022-11-09T17:35:45.437Z,13.59
2022-11-09T17:38:12.792Z,13.51
2022-11-09T17:40:39.627Z,13.54
2022-11-09T17:43:06.573Z,13.49
2022-11-09T17:45:35.104Z,13.39
2022-11-09T17:48:02.537Z,13.39
2022-11-09T17:50:29.298Z,13.33
2022-11-09T17:52:56.134Z,13.33
2022-11-09T17:55:23.592Z,13.29
2022-11-09T17:57:50.803Z,13.28
2022-11-09T18:00:18.886Z,13.24
2022-11-09T18:02:45.834Z,13.24
2022-11-09T18:05:14.174Z,13.20
2022-11-09T18:07:40.848Z,13.01
2022-11-09T18:10:08.093Z,13.05
2022-11-09T18:12:34.741Z,12.94
2022-11-09T18:15:02.301Z,12.86
2022-11-09T18:17:29.265Z,12.82
2022-11-09T18:19:56.017Z,12.89
2022-11-09T18:22:22.753Z,12.84
2022-11-09T18:24:49.437Z,12.84
2022-11-09T18:27:16.444Z,12.81
2022-11-09T18:29:43.516Z,12.76
2022-11-09T18:32:13.794Z,12.78
2022-11-09T18:34:40.916Z,12.75
2022-11-09T18:37:07.613Z,12.78
2022-11-09T18:39:34.539Z,12.70
2022-11-09T18:42:02.147Z,12.64
2022-11-09T18:44:29.161Z,12.66
2022-11-09T18:47:00.699Z,12.51
2022-11-09T18:49:30.652Z,12.52
2022-11-09T18:51:59.368Z,12.50
2022-11-09T18:54:26.369Z,12.47
2022-11-09T18:56:53.732Z,12.40
2022-11-09T18:59:20.541Z,12.33
2022-11-09T19:01:47.206Z,12.40
2022-11-09T19:04:19.347Z,12.44
2022-11-09T19:06:46.941Z,12.44
2022-11-09T19:09:30.242Z,12.43
2022-11-09T19:11:58.270Z,12.41
2022-11-09T19:14:25.948Z,12.38
2022-11-09T19:16:53.175Z,12.40
2022-11-09T19:19:20.544Z,12.39
2022-11-09T19:21:57.070Z,12.34
2022-11-09T19:24:25.725Z,12.30
2022-11-09T19:26:54.223Z,12.27
2022-11-09T19:29:21.789Z,12.23
2022-11-09T19:31:48.980Z,12.20
2022-11-09T19:34:18.306Z,12.28
2022-11-09T19:36:46.221Z,12.20
2022-11-09T19:39:16.690Z,12.23
2022-11-09T19:41:43.474Z,12.32
2022-11-09T19:44:12.984Z,12.36
2022-11-09T19:46:40.181Z,12.36
2022-11-09T19:49:07.687Z,12.37
2022-11-09T19:51:35.071Z,12.41
2022-11-09T19:54:03.204Z,12.46
2022-11-09T19:56:31.767Z,12.52
2022-11-09T19:59:00.350Z,12.51
2022-11-09T20:01:28.000Z,12.58
2022-11-09T20:03:56.849Z,12.56
2022-11-09T20:06:24.405Z,12.60
2022-11-09T20:08:52.379Z,12.60
2022-11-09T20:11:39.958Z,12.60
2022-11-09T20:14:08.033Z,12.59
2022-11-09T20:16:35.529Z,12.60
2022-11-09T20:19:03.819Z,12.68
2022-11-09T20:21:30.964Z,12.60
2022-11-09T20:23:58.502Z,12.58
2022-11-09T20:26:25.244Z,12.55
2022-11-09T20:28:53.612Z,12.64
2022-11-09T20:31:21.376Z,12.63
2022-11-09T20:33:48.798Z,12.74
2022-11-09T20:36:16.076Z,12.74
2022-11-09T20:38:43.019Z,12.71
2022-11-09T20:41:11.335Z,12.72
2022-11-09T20:43:38.759Z,12.69
2022-11-09T20:46:14.885Z,12.77
2022-11-09T20:48:57.597Z,12.80
2022-11-09T20:51:25.002Z,12.66
2022-11-09T20:53:51.958Z,12.64
2022-11-09T20:56:20.123Z,12.58
2022-11-09T20:58:47.467Z,12.57
2022-11-09T21:01:20.192Z,12.59
2022-11-09T21:03:47.845Z,12.54
2022-11-09T21:06:15.683Z,12.54
2022-11-09T21:08:50.643Z,12.54
2022-11-09T21:11:19.087Z,12.60
2022-11-09T21:13:50.489Z,12.74
2022-11-09T21:16:18.314Z,12.69
2022-11-09T21:18:45.214Z,12.61
2022-11-09T21:21:23.286Z,12.60
2022-11-09T21:24:08.750Z,12.62
2022-11-09T21:26:54.129Z,12.75
2022-11-09T21:29:42.558Z,12.73
2022-11-09T21:32:11.369Z,12.66
2022-11-09T21:34:38.459Z,12.65
2022-11-09T21:37:05.937Z,12.64
2022-11-09T21:39:32.823Z,12.57
2022-11-09T21:42:00.040Z,12.56
2022-11-09T21:44:31.261Z,12.61
2022-11-09T21:46:59.021Z,12.50
2022-11-09T21:49:25.733Z,12.48
2022-11-09T21:51:52.617Z,12.45
2022-11-09T21:54:20.182Z,12.38
2022-11-09T21:56:51.196Z,12.30
2022-11-09T21:59:18.007Z,12.27
2022-11-09T22:01:45.581Z,12.24
2022-11-09T22:04:12.431Z,12.21
2022-11-09T22:06:40.923Z,12.20
2022-11-09T22:09:12.955Z,12.12
2022-11-09T22:11:58.558Z,12.08
2022-11-09T22:14:43.896Z,11.98
2022-11-09T22:17:10.700Z,12.02
2022-11-09T22:19:57.195Z,12.06
2022-11-09T22:22:24.794Z,12.07
2022-11-09T22:24:51.478Z,12.05
2022-11-09T22:27:18.158Z,12.11
2022-11-09T22:29:45.305Z,12.06
2022-11-09T22:32:12.169Z,12.09
2022-11-09T22:34:39.081Z,12.01
2022-11-09T22:37:06.208Z,11.98
2022-11-09T22:39:33.016Z,11.90
2022-11-09T22:42:00.162Z,11.91
2022-11-09T22:44:26.946Z,11.88
2022-11-09T22:46:53.846Z,11.90
2022-11-09T22:49:20.567Z,11.94
2022-11-09T22:51:47.380Z,11.91
2022-11-09T22:54:14.211Z,11.90
2022-11-09T22:56:41.305Z,11.85
2022-11-09T22:59:08.271Z,11.76
2022-11-09T23:01:35.017Z,11.70
2022-11-09T23:04:02.336Z,11.59
2022-11-09T23:06:29.473Z,11.55
2022-11-09T23:08:56.530Z,11.60
2022-11-09T23:11:24.090Z,11.51
2022-11-09T23:13:55.176Z,11.46
2022-11-09T23:16:23.363Z,11.38
2022-11-09T23:18:55.998Z,11.15
2022-11-09T23:21:31.146Z,11.06
2022-11-09T23:24:00.876Z,10.96
2022-11-09T23:26:28.435Z,10.95
2022-11-09T23:28:55.565Z,10.99
2022-11-09T23:31:26.130Z,11.03
2022-11-09T23:33:54.784Z,10.81
2022-11-09T23:36:26.148Z,10.90
2022-11-09T23:38:53.271Z,10.88
2022-11-09T23:41:20.423Z,10.75
2022-11-09T23:43:49.721Z,10.68
2022-11-09T23:46:17.562Z,10.61
2022-11-09T23:48:44.566Z,10.58
2022-11-09T23:51:12.381Z,10.56
2022-11-09T23:53:39.586Z,10.51
2022-11-09T23:56:11.226Z,10.52
2022-11-09T23:58:38.487Z,10.50
